createdAt,value
2022-10-09T00:00:25.074Z,7.62
2022-10-09T00:02:53.053Z,7.65
2022-10-09T00:05:23.757Z,7.58
2022-10-09T00:07:51.782Z,7.59
2022-10-09T00:10:21.230Z,7.57
2022-10-09T00:12:49.557Z,7.62
2022-10-09T00:15:17.952Z,7.71
2022-10-09T00:17:46.309Z,7.74
2022-10-09T00:20:14.950Z,7.72
2022-10-09T00:22:43.575Z,7.71
2022-10-09T00:25:11.680Z,7.71
2022-10-09T00:27:41.758Z,7.75
2022-10-09T00:30:11.131Z,7.71
2022-10-09T00:32:39.238Z,7.66
2022-10-09T00:35:07.922Z,7.63
2022-10-09T00:37:36.078Z,7.65
2022-10-09T00:40:04.371Z,7.63
2022-10-09T00:42:32.926Z,7.64
2022-10-09T00:45:02.804Z,7.60
2022-10-09T00:47:32.606Z,7.63
2022-10-09T00:50:02.905Z,7.55
2022-10-09T00:52:31.242Z,7.50
2022-10-09T00:54:59.244Z,7.47
2022-10-09T00:57:27.428Z,7.49
2022-10-09T00:59:55.593Z,7.37
2022-10-09T01:02:25.078Z,7.40
2022-10-09T01:04:53.069Z,7.42
2022-10-09T01:07:30.942Z,7.33
2022-10-09T01:10:02.985Z,7.28
2022-10-09T01:12:42.946Z,7.30
2022-10-09T01:15:15.578Z,7.26
2022-10-09T01:17:46.915Z,7.29
2022-10-09T01:20:35.298Z,7.28
2022-10-09T01:23:18.903Z,7.24
2022-10-09T01:25:52.835Z,7.22
2022-10-09T01:28:22.486Z,7.18
2022-10-09T01:30:50.922Z,7.25
2022-10-09T01:33:19.278Z,7.10
2022-10-09T01:35:47.273Z,7.19
2022-10-09T01:38:15.614Z,7.20
2022-10-09T01:40:43.982Z,7.17
2022-10-09T01:43:11.949Z,7.23
2022-10-09T01:45:43.438Z,7.23
2022-10-09T01:48:18.078Z,7.21
2022-10-09T01:50:47.090Z,7.12
2022-10-09T01:53:16.755Z,7.15
2022-10-09T01:55:46.366Z,7.15
2022-10-09T01:58:17.294Z,7.12
2022-10-09T02:00:48.440Z,7.09
2022-10-09T02:03:17.163Z,7.13
2022-10-09T02:05:45.360Z,7.09
2022-10-09T02:08:13.882Z,7.11
2022-10-09T02:10:41.982Z,7.08
2022-10-09T02:13:10.005Z,7.11
2022-10-09T02:15:39.293Z,7.16
2022-10-09T02:18:10.410Z,7.05
2022-10-09T02:20:39.687Z,7.07
2022-10-09T02:23:08.395Z,7.01
2022-10-09T02:25:36.382Z,7.03
2022-10-09T02:28:04.567Z,6.99
2022-10-09T02:30:42.941Z,6.99
2022-10-09T02:33:12.352Z,6.97
2022-10-09T02:35:40.365Z,6.99
2022-10-09T02:38:08.330Z,6.97
2022-10-09T02:40:36.350Z,6.96
2022-10-09T02:43:04.782Z,6.94
2022-10-09T02:45:33.114Z,6.89
2022-10-09T02:48:01.180Z,6.94
2022-10-09T02:50:30.547Z,7.00
2022-10-09T02:52:58.814Z,6.98
2022-10-09T02:55:26.896Z,7.03
2022-10-09T02:57:55.306Z,7.03
2022-10-09T03:00:23.349Z,7.13
2022-10-09T03:02:51.734Z,7.01
2022-10-09T03:05:20.128Z,7.12
2022-10-09T03:07:53.142Z,7.13
2022-10-09T03:10:21.863Z,7.16
2022-10-09T03:12:50.069Z,7.31
2022-10-09T03:15:18.485Z,7.27
2022-10-09T03:17:46.515Z,7.42
2022-10-09T03:20:14.777Z,7.34
2022-10-09T03:22:43.236Z,7.26
2022-10-09T03:25:12.587Z,7.23
2022-10-09T03:27:40.592Z,7.37
2022-10-09T03:30:11.794Z,7.43
2022-10-09T03:32:39.798Z,7.34
2022-10-09T03:35:08.241Z,7.37
2022-10-09T03:37:36.308Z,7.42
2022-10-09T03:40:05.171Z,7.48
2022-10-09T03:42:35.577Z,7.44
2022-10-09T03:45:04.884Z,7.47
2022-10-09T03:47:33.121Z,7.44
2022-10-09T03:50:01.352Z,7.55
2022-10-09T03:52:29.400Z,7.56
2022-10-09T03:54:57.654Z,7.53
2022-10-09T03:57:25.670Z,7.57
2022-10-09T03:59:55.563Z,7.60
2022-10-09T04:02:23.698Z,7.50
2022-10-09T04:04:51.801Z,7.54
2022-10-09T04:07:21.358Z,7.54
2022-10-09T04:09:50.047Z,7.60
2022-10-09T04:12:18.069Z,7.50
2022-10-09T04:14:46.394Z,7.56
2022-10-09T04:17:15.787Z,7.49
2022-10-09T04:19:43.825Z,7.62
2022-10-09T04:22:11.873Z,7.52
2022-10-09T04:24:39.862Z,7.57
2022-10-09T04:27:07.836Z,7.57
2022-10-09T04:29:36.271Z,7.63
2022-10-09T04:32:04.282Z,7.59
2022-10-09T04:34:33.701Z,7.63
2022-10-09T04:37:01.724Z,7.66
2022-10-09T04:39:29.774Z,7.70
2022-10-09T04:41:57.784Z,7.73
2022-10-09T04:44:26.220Z,7.72
2022-10-09T04:46:54.457Z,7.69
2022-10-09T04:49:22.512Z,7.70
2022-10-09T04:51:52.267Z,7.74
2022-10-09T04:54:20.241Z,7.75
2022-10-09T04:56:48.341Z,7.77
2022-10-09T04:59:16.610Z,7.79
2022-10-09T05:01:44.743Z,7.77
2022-10-09T05:04:12.825Z,7.78
2022-10-09T05:06:40.786Z,7.78
2022-10-09T05:09:10.577Z,7.74
2022-10-09T05:11:42.526Z,7.81
2022-10-09T05:14:11.024Z,7.81
2022-10-09T05:17:08.168Z,7.73
2022-10-09T05:19:27.287Z,7.78
2022-10-09T05:21:56.016Z,7.76
2022-10-09T05:24:26.963Z,7.83
2022-10-09T05:26:55.996Z,7.72
2022-10-09T05:29:24.041Z,7.84
2022-10-09T05:31:52.131Z,7.89
2022-10-09T05:34:20.620Z,7.84
2022-10-09T05:36:48.753Z,7.88
2022-10-09T05:39:17.448Z,7.88
2022-10-09T05:41:47.507Z,7.79
2022-10-09T05:44:15.918Z,7.91
2022-10-09T05:46:43.948Z,7.89
2022-10-09T05:49:12.171Z,7.88
2022-10-09T05:51:42.799Z,7.89
2022-10-09T05:54:11.405Z,7.90
2022-10-09T05:56:40.822Z,7.92
2022-10-09T05:59:11.445Z,7.91
2022-10-09T06:01:40.388Z,7.88
2022-10-09T06:04:10.984Z,7.95
2022-10-09T06:06:39.690Z,7.98
2022-10-09T06:09:07.783Z,7.96
2022-10-09T06:11:36.595Z,7.98
2022-10-09T06:14:05.511Z,7.98
2022-10-09T06:16:36.297Z,7.95
2022-10-09T06:19:04.525Z,7.95
2022-10-09T06:21:32.630Z,8.02
2022-10-09T06:24:02.851Z,8.04
2022-10-09T06:26:31.740Z,8.03
2022-10-09T06:29:00.712Z,8.10
2022-10-09T06:31:29.508Z,8.13
2022-10-09T06:33:59.584Z,8.17
2022-10-09T06:36:28.570Z,8.16
2022-10-09T06:38:56.665Z,8.32
2022-10-09T06:41:25.620Z,8.39
2022-10-09T06:43:54.280Z,8.39
2022-10-09T06:46:24.308Z,8.40
2022-10-09T06:48:53.138Z,8.42
2022-10-09T06:51:23.899Z,8.43
2022-10-09T06:53:53.490Z,8.48
2022-10-09T06:56:22.395Z,8.59
2022-10-09T06:58:50.627Z,8.55
2022-10-09T07:01:19.399Z,8.59
2022-10-09T07:03:48.323Z,8.78
2022-10-09T07:06:17.001Z,8.71
2022-10-09T07:08:47.343Z,8.84
2022-10-09T07:11:15.945Z,8.78
2022-10-09T07:13:47.643Z,8.89
2022-10-09T07:16:19.115Z,9.05
2022-10-09T07:19:26.803Z,9.13
2022-10-09T07:22:27.993Z,9.17
2022-10-09T07:25:54.631Z,9.24
2022-10-09T07:31:59.084Z,9.37
2022-10-09T07:42:12.894Z,9.63
2022-10-09T07:44:41.073Z,9.61
2022-10-09T07:47:11.157Z,9.81
2022-10-09T07:49:39.367Z,9.81
2022-10-09T07:52:07.753Z,9.89
2022-10-09T07:54:35.735Z,10.08
2022-10-09T07:57:03.810Z,10.16
2022-10-09T07:59:32.212Z,10.18
2022-10-09T08:02:00.742Z,10.21
2022-10-09T08:04:30.277Z,10.31
2022-10-09T08:06:59.977Z,10.42
2022-10-09T08:09:28.451Z,10.53
2022-10-09T08:11:57.291Z,10.58
2022-10-09T08:14:25.649Z,10.58
2022-10-09T08:16:53.758Z,10.79
2022-10-09T08:19:23.680Z,10.71
2022-10-09T08:21:53.149Z,10.81
2022-10-09T08:24:21.311Z,10.87
2022-10-09T08:26:49.390Z,10.90
2022-10-09T08:29:20.549Z,10.96
2022-10-09T08:31:48.529Z,11.13
2022-10-09T08:34:16.909Z,11.34
2022-10-09T08:36:46.382Z,11.19
2022-10-09T08:39:16.284Z,11.28
2022-10-09T08:41:45.841Z,11.42
2022-10-09T08:44:17.831Z,11.41
2022-10-09T08:46:54.511Z,11.56
2022-10-09T08:49:26.239Z,11.54
2022-10-09T08:51:54.281Z,11.66
2022-10-09T08:54:27.768Z,11.83
2022-10-09T08:56:56.070Z,11.94
2022-10-09T08:59:24.551Z,12.03
2022-10-09T09:01:56.198Z,12.18
2022-10-09T09:04:35.453Z,12.16
2022-10-09T09:07:09.138Z,12.47
2022-10-09T09:09:47.591Z,12.31
2022-10-09T09:12:19.231Z,12.33
2022-10-09T09:14:59.541Z,12.36
2022-10-09T09:17:30.732Z,12.41
2022-10-09T09:20:04.849Z,12.75
2022-10-09T09:22:33.465Z,12.74
2022-10-09T09:25:04.450Z,12.73
2022-10-09T09:27:34.232Z,12.65
2022-10-09T09:30:05.047Z,12.69
2022-10-09T09:32:34.164Z,12.79
2022-10-09T09:35:08.476Z,12.69
2022-10-09T09:37:37.855Z,12.93
2022-10-09T09:40:35.984Z,13.18
2022-10-09T09:49:55.082Z,12.96
2022-10-09T09:52:23.359Z,12.95
2022-10-09T09:54:51.605Z,13.23
2022-10-09T09:57:28.059Z,13.26
2022-10-09T09:59:56.311Z,13.44
2022-10-09T10:02:26.311Z,13.41
2022-10-09T10:04:55.694Z,13.23
2022-10-09T10:07:31.573Z,13.19
2022-10-09T10:10:04.659Z,13.32
2022-10-09T10:12:34.759Z,13.26
2022-10-09T10:15:03.156Z,13.47
2022-10-09T10:17:31.647Z,13.48
2022-10-09T10:19:59.920Z,13.65
2022-10-09T10:22:29.553Z,13.54
2022-10-09T10:24:58.279Z,13.55
2022-10-09T10:27:28.836Z,13.90
2022-10-09T10:29:59.851Z,13.69
2022-10-09T10:32:31.735Z,13.80
2022-10-09T10:35:18.950Z,13.92
2022-10-09T10:37:48.520Z,13.95
2022-10-09T10:40:18.137Z,13.99
2022-10-09T10:42:57.381Z,14.05
2022-10-09T10:45:31.828Z,14.19
2022-10-09T10:48:00.090Z,14.36
2022-10-09T10:50:29.799Z,14.20
2022-10-09T10:53:03.536Z,14.50
2022-10-09T10:55:38.314Z,14.46
2022-10-09T10:58:17.456Z,14.37
2022-10-09T11:00:51.808Z,14.57
2022-10-09T11:03:29.058Z,14.25
2022-10-09T11:05:58.207Z,14.41
2022-10-09T11:08:35.978Z,14.57
2022-10-09T11:11:06.349Z,14.56
2022-10-09T11:13:38.450Z,14.48
2022-10-09T11:16:17.077Z,14.63
2022-10-09T11:18:54.275Z,14.61
2022-10-09T11:21:48.749Z,14.64
2022-10-09T11:24:27.095Z,14.55
2022-10-09T11:27:03.200Z,14.41
2022-10-09T11:29:34.563Z,14.59
2022-10-09T11:32:06.832Z,14.57
2022-10-09T11:34:36.547Z,14.68
2022-10-09T11:37:04.805Z,14.90
2022-10-09T11:39:33.035Z,15.02
2022-10-09T11:42:01.326Z,14.84
2022-10-09T11:44:37.007Z,15.01
2022-10-09T11:47:11.429Z,14.69
2022-10-09T11:49:45.389Z,14.80
2022-10-09T11:52:19.439Z,15.13
2022-10-09T11:54:47.728Z,15.01
2022-10-09T11:57:15.992Z,15.13
2022-10-09T11:59:45.272Z,15.14
2022-10-09T12:02:31.146Z,15.37
2022-10-09T12:04:59.645Z,15.16
2022-10-09T12:07:30.662Z,15.08
2022-10-09T12:10:00.967Z,15.19
2022-10-09T12:12:29.498Z,15.12
2022-10-09T12:14:58.580Z,15.12
2022-10-09T12:17:35.536Z,15.38
2022-10-09T12:20:07.045Z,15.37
2022-10-09T12:22:36.656Z,15.19
2022-10-09T12:25:08.308Z,15.35
2022-10-09T12:27:37.878Z,15.36
2022-10-09T12:30:17.033Z,15.63
2022-10-09T12:32:50.870Z,15.53
2022-10-09T12:35:23.291Z,15.75
2022-10-09T12:37:51.845Z,15.60
2022-10-09T12:40:23.690Z,15.54
2022-10-09T12:42:52.954Z,15.64
2022-10-09T12:45:22.368Z,15.69
2022-10-09T12:47:52.068Z,15.59
2022-10-09T12:50:23.969Z,15.60
2022-10-09T12:52:52.794Z,15.56
2022-10-09T12:55:26.488Z,15.70
2022-10-09T12:57:55.284Z,15.61
2022-10-09T13:00:23.534Z,15.74
2022-10-09T13:02:53.636Z,15.75
2022-10-09T13:05:22.305Z,15.67
2022-10-09T13:07:52.679Z,15.69
2022-10-09T13:10:22.344Z,15.68
2022-10-09T13:12:52.278Z,15.67
2022-10-09T13:15:35.727Z,15.79
2022-10-09T13:18:14.128Z,15.96
2022-10-09T13:20:42.374Z,16.01
2022-10-09T13:23:27.886Z,15.70
2022-10-09T13:25:58.872Z,15.78
2022-10-09T13:28:43.467Z,15.70
2022-10-09T13:31:12.131Z,15.76
2022-10-09T13:33:41.774Z,15.81
2022-10-09T13:36:11.101Z,15.66
2022-10-09T13:38:39.354Z,15.64
2022-10-09T13:41:07.600Z,15.74
2022-10-09T13:43:35.846Z,15.84
2022-10-09T13:46:04.413Z,15.82
2022-10-09T13:48:33.944Z,15.78
2022-10-09T13:51:03.709Z,15.77
2022-10-09T13:53:32.268Z,15.80
2022-10-09T13:56:01.172Z,15.74
2022-10-09T13:58:29.536Z,15.85
2022-10-09T14:00:58.337Z,15.84
2022-10-09T14:03:26.740Z,15.79
2022-10-09T14:05:59.280Z,15.90
2022-10-09T14:08:28.932Z,15.87
2022-10-09T14:10:57.330Z,15.95
2022-10-09T14:13:25.577Z,15.97
2022-10-09T14:15:54.416Z,15.74
2022-10-09T14:18:22.952Z,15.88
2022-10-09T14:20:51.254Z,15.92
2022-10-09T14:23:19.488Z,15.64
2022-10-09T14:25:49.361Z,15.95
2022-10-09T14:28:17.742Z,15.93
2022-10-09T14:31:05.891Z,15.63
2022-10-09T14:33:34.153Z,15.77
2022-10-09T14:36:07.558Z,15.97
2022-10-09T14:38:38.886Z,15.95
2022-10-09T14:41:09.230Z,16.08
2022-10-09T14:43:37.552Z,16.05
2022-10-09T14:46:06.663Z,15.99
2022-10-09T14:48:35.466Z,15.91
2022-10-09T14:51:04.918Z,15.90
2022-10-09T14:53:34.512Z,16.01
2022-10-09T14:56:03.446Z,15.99
2022-10-09T14:58:33.578Z,15.98
2022-10-09T15:01:19.522Z,15.87
2022-10-09T15:03:48.349Z,15.77
2022-10-09T15:06:17.435Z,15.97
2022-10-09T15:08:45.811Z,15.81
2022-10-09T15:11:14.160Z,15.79
2022-10-09T15:13:43.814Z,15.87
2022-10-09T15:16:13.205Z,15.94
2022-10-09T15:18:41.603Z,15.82
2022-10-09T15:21:13.469Z,15.99
2022-10-09T15:23:41.737Z,15.81
2022-10-09T15:26:10.321Z,15.82
2022-10-09T15:28:38.877Z,15.62
2022-10-09T15:31:10.238Z,15.61
2022-10-09T15:33:38.494Z,15.46
2022-10-09T15:36:06.840Z,15.41
2022-10-09T15:38:35.371Z,15.43
2022-10-09T15:43:49.552Z,15.21
2022-10-09T15:46:19.286Z,15.06
2022-10-09T15:48:47.666Z,15.17
2022-10-09T15:51:15.916Z,15.08
2022-10-09T15:53:44.794Z,15.02
2022-10-09T15:56:17.255Z,15.08
2022-10-09T15:58:45.561Z,14.80
2022-10-09T16:01:14.768Z,14.88
2022-10-09T16:03:44.766Z,14.90
2022-10-09T16:06:13.856Z,14.84
2022-10-09T16:08:42.492Z,14.71
2022-10-09T16:11:11.876Z,14.66
2022-10-09T16:13:59.353Z,14.69
2022-10-09T16:16:28.915Z,14.52
2022-10-09T16:19:00.592Z,14.54
2022-10-09T16:21:29.653Z,14.54
2022-10-09T16:23:59.578Z,14.37
2022-10-09T16:26:28.619Z,14.21
2022-10-09T16:28:56.850Z,14.15
2022-10-09T16:31:26.148Z,14.13
2022-10-09T16:33:54.481Z,14.11
2022-10-09T16:36:24.377Z,14.01
2022-10-09T16:39:10.916Z,13.85
2022-10-09T16:41:41.963Z,13.84
2022-10-09T16:44:13.426Z,13.74
2022-10-09T16:46:41.978Z,13.78
2022-10-09T16:49:14.766Z,13.56
2022-10-09T16:51:44.448Z,13.55
2022-10-09T16:54:12.713Z,13.33
2022-10-09T16:56:41.411Z,13.28
2022-10-09T16:59:11.389Z,13.28
2022-10-09T17:01:43.765Z,13.08
2022-10-09T17:04:13.120Z,13.09
2022-10-09T17:06:46.683Z,13.02
2022-10-09T17:09:15.009Z,12.99
2022-10-09T17:11:43.262Z,12.89
2022-10-09T17:14:12.382Z,12.79
2022-10-09T17:16:41.220Z,12.68
2022-10-09T17:19:29.662Z,12.78
2022-10-09T17:22:01.332Z,12.69
2022-10-09T17:24:29.734Z,12.57
2022-10-09T17:26:58.577Z,12.60
2022-10-09T17:29:26.877Z,12.65
2022-10-09T17:31:55.145Z,12.54
2022-10-09T17:34:23.439Z,12.47
2022-10-09T17:36:54.609Z,12.47
2022-10-09T17:39:24.618Z,12.45
2022-10-09T17:41:52.876Z,12.30
2022-10-09T17:44:22.952Z,12.25
2022-10-09T17:46:51.200Z,12.16
2022-10-09T17:49:20.315Z,12.08
2022-10-09T17:51:49.632Z,12.09
2022-10-09T17:54:18.201Z,12.02
2022-10-09T17:56:47.833Z,12.11
2022-10-09T17:59:16.916Z,12.00
2022-10-09T18:01:45.501Z,11.92
2022-10-09T18:04:16.447Z,12.01
2022-10-09T18:09:30.292Z,11.92
2022-10-09T18:12:00.056Z,11.93
2022-10-09T18:14:28.326Z,11.96
2022-10-09T18:16:56.587Z,11.88
2022-10-09T18:19:24.850Z,11.76
2022-10-09T18:24:38.818Z,11.68
2022-10-09T18:27:08.484Z,11.75
2022-10-09T18:29:37.170Z,11.70
2022-10-09T18:32:05.994Z,11.64
2022-10-09T18:34:38.921Z,11.63
2022-10-09T18:37:07.839Z,11.65
2022-10-09T18:39:36.380Z,11.57
2022-10-09T18:42:05.114Z,11.53
2022-10-09T18:44:40.989Z,11.62
2022-10-09T18:47:11.941Z,11.60
2022-10-09T18:49:42.155Z,11.43
2022-10-09T18:52:10.576Z,11.46
2022-10-09T18:57:26.021Z,11.42
2022-10-09T18:59:55.677Z,11.42
2022-10-09T19:02:26.693Z,11.43
2022-10-09T19:04:55.067Z,11.38
2022-10-09T19:07:23.341Z,11.40
2022-10-09T19:09:57.016Z,11.30
2022-10-09T19:12:25.670Z,11.30
2022-10-09T19:15:12.706Z,11.27
2022-10-09T19:17:42.297Z,11.34
2022-10-09T19:20:11.052Z,11.30
2022-10-09T19:22:40.528Z,11.27
2022-10-09T19:25:09.178Z,11.20
2022-10-09T19:27:37.402Z,11.22
2022-10-09T19:30:06.186Z,11.25
2022-10-09T19:32:34.425Z,11.17
2022-10-09T19:35:04.401Z,11.20
2022-10-09T19:37:32.632Z,11.17
2022-10-09T19:40:01.038Z,11.12
2022-10-09T19:42:48.114Z,11.09
2022-10-09T19:45:16.455Z,11.10
2022-10-09T19:47:44.719Z,11.10
2022-10-09T19:50:15.198Z,11.16
2022-10-09T19:52:43.463Z,11.10
2022-10-09T19:55:11.723Z,11.16
2022-10-09T19:57:40.103Z,11.06
2022-10-09T20:00:09.490Z,10.98
2022-10-09T20:02:37.754Z,10.99
2022-10-09T20:05:06.479Z,10.95
2022-10-09T20:07:36.123Z,11.02
2022-10-09T20:10:04.596Z,11.03
2022-10-09T20:12:33.165Z,11.06
2022-10-09T20:15:01.416Z,11.06
2022-10-09T20:17:29.639Z,11.04
2022-10-09T20:20:03.668Z,11.01
2022-10-09T20:22:37.803Z,11.04
2022-10-09T20:25:08.835Z,11.04
2022-10-09T20:27:37.337Z,11.05
2022-10-09T20:30:05.994Z,11.00
2022-10-09T20:32:37.075Z,11.05
2022-10-09T20:35:06.278Z,11.03
2022-10-09T20:37:35.150Z,11.07
2022-10-09T20:40:03.462Z,11.05
2022-10-09T20:42:33.869Z,11.12
2022-10-09T20:45:02.143Z,11.06
2022-10-09T20:47:30.380Z,11.06
2022-10-09T20:49:59.080Z,11.06
2022-10-09T20:52:27.374Z,11.06
2022-10-09T20:54:55.601Z,11.14
2022-10-09T20:57:23.858Z,11.18
2022-10-09T20:59:53.458Z,11.09
2022-10-09T21:02:22.035Z,11.06
2022-10-09T21:04:50.278Z,11.14
2022-10-09T21:07:18.503Z,11.10
2022-10-09T21:09:47.078Z,11.06
2022-10-09T21:12:15.315Z,11.07
2022-10-09T21:14:43.583Z,11.09
2022-10-09T21:17:13.224Z,11.10
2022-10-09T21:19:41.791Z,11.22
2022-10-09T21:22:27.287Z,11.10
2022-10-09T21:24:55.552Z,11.15
2022-10-09T21:27:28.220Z,11.16
2022-10-09T21:29:57.885Z,11.15
2022-10-09T21:32:27.816Z,11.13
2022-10-09T21:34:56.079Z,11.15
2022-10-09T21:37:24.367Z,11.17
2022-10-09T21:39:52.589Z,11.12
2022-10-09T21:42:20.849Z,11.06
2022-10-09T21:44:49.377Z,11.07
2022-10-09T21:47:19.004Z,11.08
2022-10-09T21:49:48.843Z,11.08
2022-10-09T21:52:17.396Z,11.09
2022-10-09T21:54:46.002Z,11.10
2022-10-09T21:57:14.293Z,11.07
2022-10-09T21:59:42.538Z,11.08
2022-10-09T22:02:11.145Z,11.13
2022-10-09T22:04:39.410Z,11.08
2022-10-09T22:07:09.009Z,11.11
2022-10-09T22:09:37.665Z,11.05
2022-10-09T22:12:06.321Z,11.05
2022-10-09T22:14:34.623Z,11.06
2022-10-09T22:17:03.488Z,11.02
2022-10-09T22:19:32.797Z,10.98
2022-10-09T22:22:01.046Z,11.02
2022-10-09T22:24:30.672Z,11.03
2022-10-09T22:26:58.940Z,10.99
2022-10-09T22:29:27.177Z,10.96
2022-10-09T22:31:55.427Z,10.93
2022-10-09T22:34:23.928Z,11.02
2022-10-09T22:36:52.196Z,10.91
2022-10-09T22:39:20.434Z,10.95
2022-10-09T22:41:50.062Z,10.90
2022-10-09T22:44:18.810Z,10.94
2022-10-09T22:46:47.950Z,10.96
2022-10-09T22:49:16.406Z,10.91
2022-10-09T22:51:45.118Z,10.93
2022-10-09T22:54:15.173Z,10.92
2022-10-09T22:56:44.596Z,10.87
2022-10-09T22:59:15.666Z,10.90
2022-10-09T23:01:45.385Z,10.89
2022-10-09T23:04:14.261Z,10.87
2022-10-09T23:06:45.028Z,10.84
2022-10-09T23:09:14.528Z,10.80
2022-10-09T23:11:42.876Z,10.78
2022-10-09T23:14:11.783Z,10.77
2022-10-09T23:16:41.774Z,10.83
2022-10-09T23:19:10.247Z,10.75
2022-10-09T23:21:39.326Z,10.74
2022-10-09T23:24:08.075Z,10.73
2022-10-09T23:26:36.732Z,10.71
2022-10-09T23:29:05.970Z,10.67
2022-10-09T23:31:34.257Z,10.63
2022-10-09T23:34:04.186Z,10.68
2022-10-09T23:36:32.490Z,10.58
2022-10-09T23:39:00.822Z,10.54
2022-10-09T23:41:29.371Z,10.55
2022-10-09T23:43:58.235Z,10.53
2022-10-09T23:46:27.521Z,10.52
2022-10-09T23:48:55.990Z,10.51
2022-10-09T23:51:27.053Z,10.43
2022-10-09T23:53:55.284Z,10.43
2022-10-09T23:56:24.729Z,10.45
2022-10-09T23:58:54.045Z,10.40
